Stella Ada — 9V9082 — position and weather

sailwx.info

Track history (hours):
 
Tides and Currents Weather Stations Pressure Air Temp Water Temp Dewpoint Dewpoint Depression Visibility Wind Speed Wind Dir Waves Ship Positions

Stella Ada

Last reported at 2016-Feb-02 06:33 UTC. Time now 2016-Feb-10 15:00 UTC.
Position N 30°34' E 122°58'.
Warning: this ship's position is 8 days out of date.

Length 296 m; draft 8.8 m.

Type: Cargo ship. MMSI: 566089000.

Date/timePositionNaut miles runAvg speedWind from/ knotsBaromVisibWave heightAir tempDewpointWater temp
2016-Feb-02 06:33N 30°34' E 122°58'6111.5
2016-Feb-02 01:13N 31°14' E 122°04'1014.8
2016-Feb-02 00:32N 31°16' E 121°53'1312.9
2016-Feb-01 23:33N 31°21' E 121°39'1110.7
2016-Feb-01 22:34N 31°27' E 121°28'1212.0
2016-Feb-01 21:33N 31°35' E 121°18'1 0.5
2016-Feb-01 20:29N 31°36' E 121°19'0 0.0
2016-Feb-01 19:32N 31°36' E 121°19'0 0.0
2016-Feb-01 18:32N 31°36' E 121°19'0 0.0
2016-Feb-01 17:32N 31°36' E 121°19'0 0.0
2016-Feb-01 16:32N 31°36' E 121°19'0 0.0
2016-Feb-01 15:32N 31°36' E 121°19'0 0.0
2016-Feb-01 14:29N 31°36' E 121°19'0 0.0
2016-Feb-01 13:32N 31°36' E 121°19'0 0.1
2016-Feb-01 12:32N 31°36' E 121°19'0 0.2
2016-Feb-01 11:33N 31°36' E 121°19'9 9.0
2016-Feb-01 10:33N 31°41' E 121°10'1312.4
2016-Feb-01 09:31N 31°47' E 120°57'1313.9
2016-Feb-01 08:33N 31°59' E 120°50'10 0.3
2016-Jan-30 21:05N 31°59' E 120°38'0 0.0
2016-Jan-30 19:28N 31°59' E 120°38'0 0.0
2016-Jan-30 16:29N 31°59' E 120°38'0 0.0
2016-Jan-30 09:04N 31°59' E 120°38'0 0.0
2016-Jan-29 20:10N 31°59' E 120°38'0 0.0
2016-Jan-29 14:17N 31°59' E 120°38'2 3.3
2016-Jan-29 13:33N 32°00' E 120°41'1010.4
2016-Jan-29 12:33N 31°56' E 120°52'1111.3
2016-Jan-29 11:33N 31°47' E 120°59'1312.6
2016-Jan-29 10:33N 31°40' E 121°12'1313.4
2016-Jan-29 09:33N 31°31' E 121°23'1010.1
2016-Jan-29 08:33N 31°24' E 121°32'10 9.5
2016-Jan-29 07:33N 31°20' E 121°42'10 9.7
2016-Jan-29 06:31N 31°16' E 121°53'96 2.0
2016-Jan-27 07:26N 29°51' E 122°47'1112.5
2016-Jan-27 06:33N 29°44' E 122°36'1312.6
2016-Jan-27 05:33N 29°44' E 122°22'10 9.9
2016-Jan-27 04:33N 29°50' E 122°13'9 9.1
2016-Jan-27 03:33N 29°55' E 122°04'7 7.4
2016-Jan-27 02:33N 29°57' E 121°56'2 0.4
2016-Jan-26 20:31N 29°57' E 121°53'0 0.1
2016-Jan-26 16:31N 29°57' E 121°53'0 0.5
2016-Jan-26 15:33N 29°57' E 121°53'1 0.0
2016-Jan-25 01:23N 29°56' E 121°53'0 0.0
2016-Jan-24 22:14N 29°56' E 121°53'0 0.0
2016-Jan-24 21:26N 29°56' E 121°53'0 0.0
2016-Jan-24 20:20N 29°56' E 121°53'0 0.0
2016-Jan-24 19:14N 29°56' E 121°53'0 0.0
2016-Jan-24 18:26N 29°56' E 121°53'0 0.0
2016-Jan-24 17:32N 29°56' E 121°53'0 0.0
2016-Jan-24 14:17N 29°56' E 121°53'0 0.0
2016-Jan-24 13:32N 29°56' E 121°53'0 0.0
2016-Jan-24 12:29N 29°56' E 121°53'0 0.0
2016-Jan-24 11:20N 29°56' E 121°53'0 0.0
2016-Jan-24 10:32N 29°56' E 121°53'0 0.0
2016-Jan-24 09:26N 29°56' E 121°53'0 0.0
2016-Jan-24 08:23N 29°56' E 121°53'0 0.0
2016-Jan-24 07:17N 29°56' E 121°53'0 0.0
2016-Jan-24 06:26N 29°56' E 121°53'0 0.0
2016-Jan-24 05:32N 29°56' E 121°53'0 0.0
2016-Jan-24 04:29N 29°56' E 121°53'0 0.0
2016-Jan-24 03:32N 29°56' E 121°53'0 0.0
2016-Jan-24 02:32N 29°56' E 121°53'0 0.0
2016-Jan-24 01:32N 29°56' E 121°53'0 0.0
2016-Jan-24 00:32N 29°56' E 121°53'0 0.0
2016-Jan-23 23:23N 29°56' E 121°53'0 0.0
2016-Jan-23 22:26N 29°56' E 121°53'0 0.0
2016-Jan-23 21:29N 29°56' E 121°53'0 0.0
2016-Jan-23 20:32N 29°56' E 121°53'0 0.0
2016-Jan-23 18:17N 29°56' E 121°53'0 0.0
2016-Jan-23 17:29N 29°56' E 121°53'0 0.0
2016-Jan-23 16:23N 29°56' E 121°53'0 0.0
2016-Jan-23 15:29N 29°56' E 121°53'0 0.0
2016-Jan-23 14:11N 29°56' E 121°53'0 0.0
2016-Jan-23 13:29N 29°56' E 121°53'0 0.0
2016-Jan-23 12:29N 29°56' E 121°53'0 0.0
2016-Jan-23 11:29N 29°56' E 121°53'0 0.0
2016-Jan-23 10:29N 29°56' E 121°53'0 0.0
2016-Jan-23 09:23N 29°56' E 121°53'0 0.0
2016-Jan-23 08:29N 29°56' E 121°53'  
Track history (hours):
 
Tides and Currents Weather Stations Pressure Air Temp Water Temp Dewpoint Dewpoint Depression Visibility Wind Speed Wind Dir Waves Ship Positions

Stella Ada

Last reported at 2016-Feb-02 06:33 UTC. Time now 2016-Feb-10 15:00 UTC.
Position N 30°34' E 122°58'.
Warning: this ship's position is 8 days out of date.

Length 296 m; draft 8.8 m.

Type: Cargo ship. MMSI: 566089000.

Date/timePositionNaut miles runAvg speedWind from/ knotsBaromVisibWave heightAir tempDewpointWater temp
2016-Feb-02 06:33N 30°34' E 122°58'6111.5
2016-Feb-02 01:13N 31°14' E 122°04'1014.8
2016-Feb-02 00:32N 31°16' E 121°53'1312.9
2016-Feb-01 23:33N 31°21' E 121°39'1110.7
2016-Feb-01 22:34N 31°27' E 121°28'1212.0
2016-Feb-01 21:33N 31°35' E 121°18'1 0.5
2016-Feb-01 20:29N 31°36' E 121°19'0 0.0
2016-Feb-01 19:32N 31°36' E 121°19'0 0.0
2016-Feb-01 18:32N 31°36' E 121°19'0 0.0
2016-Feb-01 17:32N 31°36' E 121°19'0 0.0
2016-Feb-01 16:32N 31°36' E 121°19'0 0.0
2016-Feb-01 15:32N 31°36' E 121°19'0 0.0
2016-Feb-01 14:29N 31°36' E 121°19'0 0.0
2016-Feb-01 13:32N 31°36' E 121°19'0 0.1
2016-Feb-01 12:32N 31°36' E 121°19'0 0.2
2016-Feb-01 11:33N 31°36' E 121°19'9 9.0
2016-Feb-01 10:33N 31°41' E 121°10'1312.4
2016-Feb-01 09:31N 31°47' E 120°57'1313.9
2016-Feb-01 08:33N 31°59' E 120°50'10 0.3
2016-Jan-30 21:05N 31°59' E 120°38'0 0.0
2016-Jan-30 19:28N 31°59' E 120°38'0 0.0
2016-Jan-30 16:29N 31°59' E 120°38'0 0.0
2016-Jan-30 09:04N 31°59' E 120°38'0 0.0
2016-Jan-29 20:10N 31°59' E 120°38'0 0.0
2016-Jan-29 14:17N 31°59' E 120°38'2 3.3
2016-Jan-29 13:33N 32°00' E 120°41'1010.4
2016-Jan-29 12:33N 31°56' E 120°52'1111.3
2016-Jan-29 11:33N 31°47' E 120°59'1312.6
2016-Jan-29 10:33N 31°40' E 121°12'1313.4
2016-Jan-29 09:33N 31°31' E 121°23'1010.1
2016-Jan-29 08:33N 31°24' E 121°32'10 9.5
2016-Jan-29 07:33N 31°20' E 121°42'10 9.7
2016-Jan-29 06:31N 31°16' E 121°53'96 2.0
2016-Jan-27 07:26N 29°51' E 122°47'1112.5
2016-Jan-27 06:33N 29°44' E 122°36'1312.6
2016-Jan-27 05:33N 29°44' E 122°22'10 9.9
2016-Jan-27 04:33N 29°50' E 122°13'9 9.1
2016-Jan-27 03:33N 29°55' E 122°04'7 7.4
2016-Jan-27 02:33N 29°57' E 121°56'2 0.4
2016-Jan-26 20:31N 29°57' E 121°53'0 0.1
2016-Jan-26 16:31N 29°57' E 121°53'0 0.5
2016-Jan-26 15:33N 29°57' E 121°53'1 0.0
2016-Jan-25 01:23N 29°56' E 121°53'0 0.0
2016-Jan-24 22:14N 29°56' E 121°53'0 0.0
2016-Jan-24 21:26N 29°56' E 121°53'0 0.0
2016-Jan-24 20:20N 29°56' E 121°53'0 0.0
2016-Jan-24 19:14N 29°56' E 121°53'0 0.0
2016-Jan-24 18:26N 29°56' E 121°53'0 0.0
2016-Jan-24 17:32N 29°56' E 121°53'0 0.0
2016-Jan-24 14:17N 29°56' E 121°53'0 0.0
2016-Jan-24 13:32N 29°56' E 121°53'0 0.0
2016-Jan-24 12:29N 29°56' E 121°53'0 0.0
2016-Jan-24 11:20N 29°56' E 121°53'0 0.0
2016-Jan-24 10:32N 29°56' E 121°53'0 0.0
2016-Jan-24 09:26N 29°56' E 121°53'0 0.0
2016-Jan-24 08:23N 29°56' E 121°53'0 0.0
2016-Jan-24 07:17N 29°56' E 121°53'0 0.0
2016-Jan-24 06:26N 29°56' E 121°53'0 0.0
2016-Jan-24 05:32N 29°56' E 121°53'0 0.0
2016-Jan-24 04:29N 29°56' E 121°53'0 0.0
2016-Jan-24 03:32N 29°56' E 121°53'0 0.0
2016-Jan-24 02:32N 29°56' E 121°53'0 0.0
2016-Jan-24 01:32N 29°56' E 121°53'0 0.0
2016-Jan-24 00:32N 29°56' E 121°53'0 0.0
2016-Jan-23 23:23N 29°56' E 121°53'0 0.0
2016-Jan-23 22:26N 29°56' E 121°53'0 0.0
2016-Jan-23 21:29N 29°56' E 121°53'0 0.0
2016-Jan-23 20:32N 29°56' E 121°53'0 0.0
2016-Jan-23 18:17N 29°56' E 121°53'0 0.0
2016-Jan-23 17:29N 29°56' E 121°53'0 0.0
2016-Jan-23 16:23N 29°56' E 121°53'0 0.0
2016-Jan-23 15:29N 29°56' E 121°53'0 0.0
2016-Jan-23 14:11N 29°56' E 121°53'0 0.0
2016-Jan-23 13:29N 29°56' E 121°53'0 0.0
2016-Jan-23 12:29N 29°56' E 121°53'0 0.0
2016-Jan-23 11:29N 29°56' E 121°53'0 0.0
2016-Jan-23 10:29N 29°56' E 121°53'0 0.0
2016-Jan-23 09:23N 29°56' E 121°53'0 0.0
2016-Jan-23 08:29N 29°56' E 121°53'  

Dump ship's entire track history